createdAt,value
2018-05-26T00:00:55.433Z,1011.05
2018-05-26T00:01:55.424Z,1011.05
2018-05-26T00:02:55.411Z,1011.04
2018-05-26T00:03:55.401Z,1011.07
2018-05-26T00:04:55.393Z,1011.06
2018-05-26T00:05:55.379Z,1011.04
2018-05-26T00:06:55.368Z,1011.06
2018-05-26T00:07:55.356Z,1011.07
2018-05-26T00:08:55.349Z,1011.08
2018-05-26T00:09:55.344Z,1011.09
2018-05-26T00:10:55.324Z,1011.1
2018-05-26T00:11:55.312Z,1011.07
2018-05-26T00:12:55.301Z,1011.07
2018-05-26T00:13:55.290Z,1011.09
2018-05-26T00:14:55.281Z,1011.1
2018-05-26T00:15:55.269Z,1011.1
2018-05-26T00:16:55.257Z,1011.11
2018-05-26T00:17:55.246Z,1011.09
2018-05-26T00:18:55.235Z,1011.11
2018-05-26T00:19:55.225Z,1011.09
2018-05-26T00:20:55.216Z,1011.1
2018-05-26T00:21:55.202Z,1011.09
2018-05-26T00:22:55.192Z,1011.12
2018-05-26T00:23:55.183Z,1011.13
2018-05-26T00:24:55.169Z,1011.11
2018-05-26T00:25:55.159Z,1011.15
2018-05-26T00:26:55.147Z,1011.14
2018-05-26T00:27:55.136Z,1011.14
2018-05-26T00:28:55.327Z,1011.17
2018-05-26T00:29:55.119Z,1011.16
2018-05-26T00:30:55.105Z,1011.17
2018-05-26T00:31:55.091Z,1011.22
2018-05-26T00:32:55.081Z,1011.2
2018-05-26T00:33:55.073Z,1011.19
2018-05-26T00:34:55.061Z,1011.19
2018-05-26T00:35:55.048Z,1011.19
2018-05-26T00:36:55.037Z,1011.16
2018-05-26T00:37:55.028Z,1011.16
2018-05-26T00:38:55.015Z,1011.17
2018-05-26T00:39:55.005Z,1011.11
2018-05-26T00:40:54.992Z,1011.13
2018-05-26T00:41:54.982Z,1011.12
2018-05-26T00:42:54.969Z,1011.15
2018-05-26T00:43:54.959Z,1011.15
2018-05-26T00:44:54.947Z,1011.13
2018-05-26T00:45:54.937Z,1011.16
2018-05-26T00:46:54.925Z,1011.15
2018-05-26T00:47:54.915Z,1011.16
2018-05-26T00:48:54.903Z,1011.22
2018-05-26T00:49:54.895Z,1011.23
2018-05-26T00:50:54.879Z,1011.24
2018-05-26T00:51:54.877Z,1011.22
2018-05-26T00:52:54.856Z,1011.18
2018-05-26T00:53:54.846Z,1011.18
2018-05-26T00:54:54.836Z,1011.16
2018-05-26T00:55:54.825Z,1011.16
2018-05-26T00:56:54.812Z,1011.15
2018-05-26T00:57:54.804Z,1011.18
2018-05-26T00:58:54.792Z,1011.13
2018-05-26T00:59:54.786Z,1011.15
2018-05-26T01:00:54.770Z,1011.17
2018-05-26T01:01:54.756Z,1011.14
2018-05-26T01:02:54.745Z,1011.08
2018-05-26T01:03:54.735Z,1011.08
2018-05-26T01:04:54.724Z,1011.09
2018-05-26T01:05:54.711Z,1011.06
2018-05-26T01:06:54.701Z,1011.09
2018-05-26T01:07:54.695Z,1011.09
2018-05-26T01:08:54.677Z,1011.08
2018-05-26T01:09:54.668Z,1011.1
2018-05-26T01:10:54.655Z,1011.1
2018-05-26T01:11:54.647Z,1011.05
2018-05-26T01:12:54.633Z,1011.07
2018-05-26T01:13:54.624Z,1011.06
2018-05-26T01:14:54.615Z,1011.08
2018-05-26T01:15:54.601Z,1011.04
2018-05-26T01:16:54.588Z,1011.03
2018-05-26T01:17:54.577Z,1011.05
2018-05-26T01:18:54.565Z,1011.04
2018-05-26T01:19:54.556Z,1010.96
2018-05-26T01:20:54.548Z,1010.99
2018-05-26T01:21:54.531Z,1011
2018-05-26T01:22:54.519Z,1011
2018-05-26T01:23:54.513Z,1011
2018-05-26T01:24:54.498Z,1011
2018-05-26T01:25:54.488Z,1011.01
2018-05-26T01:26:54.473Z,1010.98
2018-05-26T01:27:54.463Z,1011
2018-05-26T01:28:54.456Z,1010.96
2018-05-26T01:29:54.440Z,1010.94
2018-05-26T01:30:54.428Z,1010.94
2018-05-26T01:31:54.418Z,1010.92
2018-05-26T01:32:54.410Z,1010.91
2018-05-26T01:33:54.393Z,1010.87
2018-05-26T01:34:54.386Z,1010.91
2018-05-26T01:35:54.372Z,1010.9
2018-05-26T01:36:54.362Z,1010.88
2018-05-26T01:37:54.350Z,1010.88
2018-05-26T01:38:54.342Z,1010.88
2018-05-26T01:39:54.330Z,1010.88
2018-05-26T01:40:54.316Z,1010.85
2018-05-26T01:41:54.307Z,1010.84
2018-05-26T01:42:54.295Z,1010.87
2018-05-26T01:43:54.281Z,1010.86
2018-05-26T01:44:54.268Z,1010.84
2018-05-26T01:45:54.257Z,1010.82
2018-05-26T01:46:54.249Z,1010.81
2018-05-26T01:47:54.234Z,1010.79
2018-05-26T01:48:54.223Z,1010.8
2018-05-26T01:49:54.212Z,1010.79
2018-05-26T01:50:54.201Z,1010.79
2018-05-26T01:51:54.189Z,1010.81
2018-05-26T01:52:54.183Z,1010.85
2018-05-26T01:53:54.167Z,1010.8
2018-05-26T01:54:54.158Z,1010.79
2018-05-26T01:55:54.143Z,1010.79
2018-05-26T01:56:54.129Z,1010.79
2018-05-26T01:57:54.122Z,1010.8
2018-05-26T01:58:54.109Z,1010.81
2018-05-26T01:59:54.101Z,1010.8
2018-05-26T02:00:54.090Z,1010.77
2018-05-26T02:01:54.075Z,1010.79
2018-05-26T02:02:54.064Z,1010.76
2018-05-26T02:03:54.053Z,1010.81
2018-05-26T02:04:54.042Z,1010.8
2018-05-26T02:05:54.029Z,1010.81
2018-05-26T02:06:54.017Z,1010.82
2018-05-26T02:07:54.005Z,1010.88
2018-05-26T02:08:53.999Z,1010.83
2018-05-26T02:09:53.983Z,1010.83
2018-05-26T02:10:53.972Z,1010.84
2018-05-26T02:11:53.961Z,1010.91
2018-05-26T02:12:53.951Z,1010.9
2018-05-26T02:13:53.936Z,1010.93
2018-05-26T02:14:53.924Z,1010.9
2018-05-26T02:15:53.914Z,1010.92
2018-05-26T02:16:53.903Z,1010.91
2018-05-26T02:17:53.888Z,1010.9
2018-05-26T02:18:53.880Z,1010.92
2018-05-26T02:19:53.866Z,1010.92
2018-05-26T02:20:53.854Z,1010.93
2018-05-26T02:21:53.848Z,1010.93
2018-05-26T02:22:53.835Z,1010.89
2018-05-26T02:23:53.821Z,1010.94
2018-05-26T02:24:53.807Z,1010.96
2018-05-26T02:25:53.796Z,1010.97
2018-05-26T02:26:53.783Z,1010.97
2018-05-26T02:27:53.772Z,1010.98
2018-05-26T02:28:53.963Z,1011.01
2018-05-26T02:29:53.747Z,1011.01
2018-05-26T02:30:53.736Z,1011.05
2018-05-26T02:31:53.725Z,1011.08
2018-05-26T02:32:53.713Z,1011.07
2018-05-26T02:33:53.702Z,1011.07
2018-05-26T02:34:53.689Z,1011.06
2018-05-26T02:35:53.679Z,1011.05
2018-05-26T02:36:53.671Z,1011.07
2018-05-26T02:37:53.654Z,1011.04
2018-05-26T02:38:53.641Z,1011.06
2018-05-26T02:39:53.629Z,1011.08
2018-05-26T02:40:53.617Z,1011.03
2018-05-26T02:41:53.628Z,1011.03
2018-05-26T02:42:53.599Z,1011.06
2018-05-26T02:43:53.583Z,1011.04
2018-05-26T02:44:53.575Z,1011.02
2018-05-26T02:45:53.557Z,1011.02
2018-05-26T02:46:53.545Z,1011.03
2018-05-26T02:47:53.536Z,1011.01
2018-05-26T02:48:53.521Z,1011.08
2018-05-26T02:49:53.515Z,1011.12
2018-05-26T02:50:53.498Z,1011.13
2018-05-26T02:51:53.485Z,1011.12
2018-05-26T02:52:53.475Z,1011.18
2018-05-26T02:53:53.464Z,1011.16
2018-05-26T02:54:53.451Z,1011.17
2018-05-26T02:55:53.439Z,1011.19
2018-05-26T02:56:53.425Z,1011.19
2018-05-26T02:57:53.414Z,1011.21
2018-05-26T02:58:53.402Z,1011.21
2018-05-26T02:59:53.390Z,1011.17
2018-05-26T03:00:53.379Z,1011.17
2018-05-26T03:01:53.382Z,1011.19
2018-05-26T03:02:53.360Z,1011.14
2018-05-26T03:03:53.346Z,1011.11
2018-05-26T03:04:53.330Z,1011.12
2018-05-26T03:05:53.317Z,1011.1
2018-05-26T03:06:53.308Z,1011.12
2018-05-26T03:07:53.297Z,1011.16
2018-05-26T03:08:53.281Z,1011.16
2018-05-26T03:09:53.269Z,1011.16
2018-05-26T03:10:53.265Z,1011.11
2018-05-26T03:11:53.247Z,1011.07
2018-05-26T03:12:53.234Z,1011.08
2018-05-26T03:13:53.223Z,1011.07
2018-05-26T03:14:53.210Z,1011.07
2018-05-26T03:15:53.200Z,1011.08
2018-05-26T03:16:53.188Z,1011.11
2018-05-26T03:17:53.177Z,1011.1
2018-05-26T03:18:53.161Z,1011.1
2018-05-26T03:19:53.151Z,1011.09
2018-05-26T03:20:53.138Z,1011.11
2018-05-26T03:21:53.126Z,1011.14
2018-05-26T03:22:53.114Z,1011.17
2018-05-26T03:23:53.101Z,1011.18
2018-05-26T03:24:53.094Z,1011.2
2018-05-26T03:25:53.079Z,1011.19
2018-05-26T03:26:53.065Z,1011.19
2018-05-26T03:27:53.054Z,1011.19
2018-05-26T03:28:53.042Z,1011.18
2018-05-26T03:29:53.029Z,1011.17
2018-05-26T03:30:53.017Z,1011.18
2018-05-26T03:31:53.005Z,1011.19
2018-05-26T03:32:52.997Z,1011.18
2018-05-26T03:33:52.982Z,1011.2
2018-05-26T03:34:52.973Z,1011.19
2018-05-26T03:35:52.957Z,1011.22
2018-05-26T03:36:52.951Z,1011.2
2018-05-26T03:37:52.940Z,1011.21
2018-05-26T03:38:52.925Z,1011.18
2018-05-26T03:39:52.910Z,1011.22
2018-05-26T03:40:52.901Z,1011.26
2018-05-26T03:41:52.890Z,1011.28
2018-05-26T03:42:52.874Z,1011.29
2018-05-26T03:43:52.864Z,1011.31
2018-05-26T03:44:52.856Z,1011.32
2018-05-26T03:45:52.838Z,1011.34
2018-05-26T03:46:52.832Z,1011.34
2018-05-26T03:47:52.816Z,1011.34
2018-05-26T03:48:52.802Z,1011.39
2018-05-26T03:49:52.793Z,1011.38
2018-05-26T03:50:52.782Z,1011.38
2018-05-26T03:51:52.768Z,1011.36
2018-05-26T03:52:52.754Z,1011.33
2018-05-26T03:53:52.743Z,1011.35
2018-05-26T03:54:52.733Z,1011.38
2018-05-26T03:55:52.721Z,1011.34
2018-05-26T03:56:52.711Z,1011.36
2018-05-26T03:57:52.699Z,1011.35
2018-05-26T03:58:52.689Z,1011.36
2018-05-26T03:59:52.669Z,1011.34
2018-05-26T04:00:52.663Z,1011.38
2018-05-26T04:01:52.646Z,1011.38
2018-05-26T04:02:52.638Z,1011.38
2018-05-26T04:03:52.624Z,1011.39
2018-05-26T04:04:52.613Z,1011.4
2018-05-26T04:05:52.629Z,1011.42
2018-05-26T04:06:52.592Z,1011.42
2018-05-26T04:07:52.580Z,1011.42
2018-05-26T04:08:52.564Z,1011.42
2018-05-26T04:09:52.555Z,1011.4
2018-05-26T04:10:52.545Z,1011.45
2018-05-26T04:11:52.533Z,1011.45
2018-05-26T04:12:52.518Z,1011.45
2018-05-26T04:13:52.510Z,1011.44
2018-05-26T04:14:52.492Z,1011.44
2018-05-26T04:15:52.486Z,1011.46
2018-05-26T04:16:52.473Z,1011.47
2018-05-26T04:17:52.461Z,1011.44
2018-05-26T04:18:52.451Z,1011.49
2018-05-26T04:19:52.441Z,1011.49
2018-05-26T04:20:52.424Z,1011.49
2018-05-26T04:21:52.412Z,1011.5
2018-05-26T04:22:52.397Z,1011.51
2018-05-26T04:23:52.386Z,1011.49
2018-05-26T04:24:52.373Z,1011.52
2018-05-26T04:25:52.361Z,1011.48
2018-05-26T04:26:52.352Z,1011.5
2018-05-26T04:27:52.338Z,1011.49
2018-05-26T04:28:52.533Z,1011.52
2018-05-26T04:29:52.316Z,1011.52
2018-05-26T04:30:52.303Z,1011.55
2018-05-26T04:31:52.301Z,1011.55
2018-05-26T04:32:52.280Z,1011.56
2018-05-26T04:33:52.270Z,1011.53
2018-05-26T04:34:52.259Z,1011.54
2018-05-26T04:35:52.246Z,1011.54
2018-05-26T04:36:52.233Z,1011.54
2018-05-26T04:37:52.223Z,1011.53
2018-05-26T04:38:52.210Z,1011.58
2018-05-26T04:39:52.201Z,1011.56
2018-05-26T04:40:52.185Z,1011.58
2018-05-26T04:41:52.174Z,1011.58
2018-05-26T04:42:52.162Z,1011.61
2018-05-26T04:43:52.152Z,1011.58
2018-05-26T04:44:52.142Z,1011.6
2018-05-26T04:45:52.129Z,1011.64
2018-05-26T04:46:52.121Z,1011.65
2018-05-26T04:47:52.104Z,1011.64
2018-05-26T04:48:52.093Z,1011.66
2018-05-26T04:49:52.083Z,1011.67
2018-05-26T04:50:52.072Z,1011.62
2018-05-26T04:51:52.059Z,1011.66
2018-05-26T04:52:52.048Z,1011.64
2018-05-26T04:53:52.039Z,1011.65
2018-05-26T04:54:52.028Z,1011.63
2018-05-26T04:55:52.013Z,1011.66
2018-05-26T04:56:52.003Z,1011.67
2018-05-26T04:57:51.990Z,1011.7
2018-05-26T04:58:51.983Z,1011.74
2018-05-26T04:59:51.972Z,1011.77
2018-05-26T05:00:51.958Z,1011.76
2018-05-26T05:01:51.947Z,1011.75
2018-05-26T05:02:51.934Z,1011.77
2018-05-26T05:03:51.924Z,1011.77
2018-05-26T05:04:51.913Z,1011.79
2018-05-26T05:05:51.900Z,1011.8
2018-05-26T05:06:51.887Z,1011.79
2018-05-26T05:07:51.928Z,1011.8
2018-05-26T05:08:51.866Z,1011.81
2018-05-26T05:09:51.857Z,1011.83
2018-05-26T05:10:51.848Z,1011.85
2018-05-26T05:11:51.834Z,1011.84
2018-05-26T05:12:51.821Z,1011.86
2018-05-26T05:13:51.809Z,1011.88
2018-05-26T05:14:51.800Z,1011.88
2018-05-26T05:15:51.789Z,1011.84
2018-05-26T05:16:51.780Z,1011.82
2018-05-26T05:17:51.765Z,1011.85
2018-05-26T05:18:51.761Z,1011.83
2018-05-26T05:19:51.747Z,1011.84
2018-05-26T05:20:51.735Z,1011.78
2018-05-26T05:21:51.722Z,1011.79
2018-05-26T05:22:51.711Z,1011.81
2018-05-26T05:23:51.699Z,1011.84
2018-05-26T05:24:51.687Z,1011.84
2018-05-26T05:25:51.679Z,1011.83
2018-05-26T05:26:51.723Z,1011.86
2018-05-26T05:27:51.657Z,1011.86
2018-05-26T05:28:51.645Z,1011.88
2018-05-26T05:29:51.637Z,1011.94
2018-05-26T05:30:51.627Z,1011.94
2018-05-26T05:31:51.616Z,1011.95
2018-05-26T05:32:51.635Z,1011.94
2018-05-26T05:33:51.592Z,1011.97
2018-05-26T05:34:51.578Z,1011.96
2018-05-26T05:35:51.568Z,1011.94
2018-05-26T05:36:51.561Z,1011.94
2018-05-26T05:37:51.548Z,1011.95
2018-05-26T05:38:51.535Z,1011.97
2018-05-26T05:39:51.526Z,1011.98
2018-05-26T05:40:51.514Z,1011.99
2018-05-26T05:41:51.511Z,1011.99
2018-05-26T05:42:51.492Z,1012.01
2018-05-26T05:43:51.485Z,1012
2018-05-26T05:44:51.471Z,1012.06
2018-05-26T05:45:51.461Z,1012.04
2018-05-26T05:46:51.450Z,1012.11
2018-05-26T05:47:51.439Z,1012.07
2018-05-26T05:48:51.428Z,1012.08
2018-05-26T05:49:51.421Z,1012.1
2018-05-26T05:50:51.418Z,1012.07
2018-05-26T05:51:51.396Z,1012.1
2018-05-26T05:52:51.388Z,1012.09
2018-05-26T05:53:51.376Z,1012.13
2018-05-26T05:54:51.369Z,1012.1
2018-05-26T05:55:51.359Z,1012.12
2018-05-26T05:56:51.344Z,1012.12
2018-05-26T05:57:51.337Z,1012.08
2018-05-26T05:58:51.333Z,1012.08
2018-05-26T05:59:51.315Z,1012.11
2018-05-26T06:00:51.302Z,1012.11
2018-05-26T06:01:51.298Z,1012.11
2018-05-26T06:02:51.282Z,1012.12
2018-05-26T06:03:51.273Z,1012.13
2018-05-26T06:04:51.261Z,1012.1
2018-05-26T06:05:51.253Z,1012.14
2018-05-26T06:06:51.246Z,1012.13
2018-05-26T06:07:51.230Z,1012.19
2018-05-26T06:08:51.222Z,1012.16
2018-05-26T06:09:51.212Z,1012.22
2018-05-26T06:10:51.201Z,1012.16
2018-05-26T06:11:51.194Z,1012.27
2018-05-26T06:12:51.180Z,1012.22
2018-05-26T06:13:51.171Z,1012.26
2018-05-26T06:14:51.217Z,1012.23
2018-05-26T06:15:51.149Z,1012.27
2018-05-26T06:16:51.140Z,1012.25
2018-05-26T06:17:51.130Z,1012.27
2018-05-26T06:18:51.122Z,1012.32
2018-05-26T06:19:51.110Z,1012.3
2018-05-26T06:20:51.098Z,1012.31
2018-05-26T06:21:51.091Z,1012.31
2018-05-26T06:22:51.084Z,1012.27
2018-05-26T06:23:51.070Z,1012.25
2018-05-26T06:24:51.060Z,1012.29
2018-05-26T06:25:51.051Z,1012.29
2018-05-26T06:26:51.042Z,1012.33
2018-05-26T06:27:51.034Z,1012.31
2018-05-26T06:28:51.023Z,1012.31
2018-05-26T06:29:51.015Z,1012.32
2018-05-26T06:30:51.001Z,1012.32
2018-05-26T06:31:51.002Z,1012.31
2018-05-26T06:32:50.983Z,1012.35
2018-05-26T06:33:50.972Z,1012.33
2018-05-26T06:34:50.964Z,1012.29
2018-05-26T06:35:50.961Z,1012.31
2018-05-26T06:36:50.946Z,1012.31
2018-05-26T06:37:50.938Z,1012.3
2018-05-26T06:38:50.929Z,1012.3
2018-05-26T06:39:50.917Z,1012.29
2018-05-26T06:40:50.923Z,1012.31
2018-05-26T06:41:50.898Z,1012.31
2018-05-26T06:42:50.890Z,1012.32
2018-05-26T06:43:50.881Z,1012.34
2018-05-26T06:44:50.872Z,1012.4
2018-05-26T06:45:50.859Z,1012.38
2018-05-26T06:46:50.852Z,1012.4
2018-05-26T06:47:50.841Z,1012.4
2018-05-26T06:48:50.836Z,1012.37
2018-05-26T06:49:50.825Z,1012.41
2018-05-26T06:50:50.819Z,1012.42
2018-05-26T06:51:50.809Z,1012.44
2018-05-26T06:52:50.796Z,1012.43
2018-05-26T06:53:50.790Z,1012.43
2018-05-26T06:54:50.781Z,1012.44
2018-05-26T06:55:50.771Z,1012.39
2018-05-26T06:56:50.765Z,1012.4
2018-05-26T06:57:50.753Z,1012.4
2018-05-26T06:58:50.743Z,1012.39
2018-05-26T06:59:50.734Z,1012.4
2018-05-26T07:00:50.726Z,1012.39
2018-05-26T07:01:50.721Z,1012.34
2018-05-26T07:02:50.710Z,1012.34
2018-05-26T07:03:50.700Z,1012.34
2018-05-26T07:04:50.724Z,1012.37
2018-05-26T07:05:50.683Z,1012.33
2018-05-26T07:06:50.674Z,1012.32
2018-05-26T07:07:50.664Z,1012.35
2018-05-26T07:08:50.662Z,1012.31
2018-05-26T07:09:50.650Z,1012.37
2018-05-26T07:10:50.642Z,1012.34
2018-05-26T07:11:50.634Z,1012.36
2018-05-26T07:12:50.627Z,1012.37
2018-05-26T07:13:50.612Z,1012.31
2018-05-26T07:14:50.606Z,1012.34
2018-05-26T07:15:50.613Z,1012.31
2018-05-26T07:16:50.588Z,1012.31
2018-05-26T07:17:50.586Z,1012.33
2018-05-26T07:18:50.571Z,1012.27
2018-05-26T07:19:50.565Z,1012.23
2018-05-26T07:20:50.554Z,1012.25
2018-05-26T07:21:50.546Z,1012.24
2018-05-26T07:22:50.538Z,1012.28
2018-05-26T07:23:50.529Z,1012.26
2018-05-26T07:24:50.520Z,1012.39
2018-05-26T07:25:50.518Z,1012.56
2018-05-26T07:26:50.504Z,1012.59
2018-05-26T07:27:50.563Z,1012.59
2018-05-26T07:28:50.493Z,1012.58
2018-05-26T07:29:50.483Z,1012.6
2018-05-26T07:30:50.478Z,1012.61
2018-05-26T07:31:50.471Z,1012.61
2018-05-26T07:32:50.464Z,1012.63
2018-05-26T07:33:50.509Z,1012.59
2018-05-26T07:34:50.456Z,1012.63
2018-05-26T07:35:50.448Z,1012.63
2018-05-26T07:36:50.442Z,1012.59
2018-05-26T07:37:50.438Z,1012.63
2018-05-26T07:38:50.436Z,1012.59
2018-05-26T07:39:50.429Z,1012.58
2018-05-26T07:40:50.443Z,1012.64
2018-05-26T07:41:50.429Z,1012.63
2018-05-26T07:42:50.418Z,1012.6
2018-05-26T07:43:50.434Z,1012.59
2018-05-26T07:44:50.419Z,1012.61
2018-05-26T07:45:50.425Z,1012.61
2018-05-26T07:46:50.415Z,1012.6
2018-05-26T07:47:50.410Z,1012.64
2018-05-26T07:48:50.407Z,1012.65
2018-05-26T07:49:50.403Z,1012.63
2018-05-26T07:50:50.405Z,1012.61
2018-05-26T07:51:50.399Z,1012.6
2018-05-26T07:52:50.400Z,1012.66
2018-05-26T07:53:50.414Z,1012.61
2018-05-26T07:54:50.397Z,1012.57
2018-05-26T07:55:50.393Z,1012.58
2018-05-26T07:56:50.428Z,1012.61
2018-05-26T07:57:50.537Z,1012.6
2018-05-26T07:58:50.435Z,1012.59
2018-05-26T07:59:50.391Z,1012.61
2018-05-26T08:00:50.525Z,1012.61
2018-05-26T08:01:50.395Z,1012.62
2018-05-26T08:02:50.393Z,1012.62
2018-05-26T08:03:50.397Z,1012.62
2018-05-26T08:04:50.393Z,1012.63
2018-05-26T08:05:50.393Z,1012.62
2018-05-26T08:06:50.400Z,1012.59
2018-05-26T08:07:50.395Z,1012.65
2018-05-26T08:08:50.401Z,1012.67
2018-05-26T08:09:50.406Z,1012.68
2018-05-26T08:10:50.453Z,1012.66
2018-05-26T08:11:50.405Z,1012.7
2018-05-26T08:12:50.415Z,1012.69
2018-05-26T08:13:50.406Z,1012.73
2018-05-26T08:14:50.429Z,1012.7
2018-05-26T08:15:50.427Z,1012.7
2018-05-26T08:16:50.424Z,1012.7
2018-05-26T08:17:50.428Z,1012.73
2018-05-26T08:18:50.434Z,1012.7
2018-05-26T08:19:50.420Z,1012.7
2018-05-26T08:20:50.424Z,1012.75
2018-05-26T08:21:50.426Z,1012.79
2018-05-26T08:22:50.428Z,1012.86
2018-05-26T08:23:50.429Z,1012.9
2018-05-26T08:24:50.434Z,1012.93
2018-05-26T08:25:50.438Z,1012.98
2018-05-26T08:26:50.439Z,1012.95
2018-05-26T08:27:50.444Z,1012.95
2018-05-26T08:28:50.445Z,1013.01
2018-05-26T08:29:50.450Z,1012.9
2018-05-26T08:30:50.452Z,1012.95
2018-05-26T08:31:50.464Z,1012.9
2018-05-26T08:32:50.472Z,1012.8
2018-05-26T08:33:50.523Z,1012.69
2018-05-26T08:34:50.470Z,1012.83
2018-05-26T08:35:50.472Z,1012.76
2018-05-26T08:36:50.539Z,1012.68
2018-05-26T08:37:50.474Z,1012.68
2018-05-26T08:38:50.487Z,1012.81
2018-05-26T08:39:50.488Z,1012.92
2018-05-26T08:40:50.484Z,1012.78
2018-05-26T08:41:50.489Z,1012.66
2018-05-26T08:42:50.494Z,1012.6
2018-05-26T08:43:50.491Z,1012.56
2018-05-26T08:44:50.496Z,1012.67
2018-05-26T08:45:50.496Z,1012.63
2018-05-26T08:46:50.500Z,1012.6
2018-05-26T08:47:50.502Z,1012.62
2018-05-26T08:48:50.503Z,1012.56
2018-05-26T08:49:50.504Z,1012.59
2018-05-26T08:50:50.503Z,1012.57
2018-05-26T08:51:50.503Z,1012.58
2018-05-26T08:52:50.507Z,1012.6
2018-05-26T08:53:50.505Z,1012.62
2018-05-26T08:54:50.506Z,1012.59
2018-05-26T08:55:50.510Z,1012.6
2018-05-26T08:56:50.510Z,1012.55
2018-05-26T08:57:50.502Z,1012.6
2018-05-26T08:58:50.507Z,1012.66
2018-05-26T08:59:50.550Z,1012.63
2018-05-26T09:00:50.501Z,1012.66
2018-05-26T09:01:50.501Z,1012.66
2018-05-26T09:02:50.499Z,1012.69
2018-05-26T09:03:50.495Z,1012.72
2018-05-26T09:04:50.543Z,1012.68
2018-05-26T09:05:50.491Z,1012.63
2018-05-26T09:06:50.488Z,1012.61
2018-05-26T09:07:50.487Z,1012.66
2018-05-26T09:08:50.484Z,1012.61
2018-05-26T09:09:50.492Z,1012.64
2018-05-26T09:10:50.477Z,1012.62
2018-05-26T09:11:50.476Z,1012.61
2018-05-26T09:12:50.479Z,1012.63
2018-05-26T09:13:50.471Z,1012.6
2018-05-26T09:14:50.497Z,1012.63
2018-05-26T09:15:50.469Z,1012.6
2018-05-26T09:16:50.461Z,1012.63
2018-05-26T09:17:50.478Z,1012.6
2018-05-26T09:18:50.456Z,1012.62
2018-05-26T09:19:50.501Z,1012.63
2018-05-26T09:20:50.450Z,1012.66
2018-05-26T09:21:50.455Z,1012.67
2018-05-26T09:22:50.443Z,1012.63
2018-05-26T09:23:50.440Z,1012.66
2018-05-26T09:24:50.435Z,1012.59
2018-05-26T09:25:50.437Z,1012.6
2018-05-26T09:26:50.429Z,1012.6
2018-05-26T09:27:50.433Z,1012.63
2018-05-26T09:28:50.424Z,1012.62
2018-05-26T09:29:50.427Z,1012.62
2018-05-26T09:30:50.414Z,1012.61
2018-05-26T09:31:50.414Z,1012.58
2018-05-26T09:32:50.405Z,1012.57
2018-05-26T09:33:50.402Z,1012.54
2018-05-26T09:34:50.399Z,1012.58
2018-05-26T09:35:50.397Z,1012.55
2018-05-26T09:36:50.394Z,1012.6
2018-05-26T09:37:50.387Z,1012.63
2018-05-26T09:38:50.384Z,1012.7
2018-05-26T09:39:50.381Z,1012.61
2018-05-26T09:40:50.376Z,1012.61
2018-05-26T09:41:50.371Z,1012.62
2018-05-26T09:42:50.369Z,1012.66
2018-05-26T09:43:50.364Z,1012.63
2018-05-26T09:44:50.362Z,1012.61
2018-05-26T09:45:50.357Z,1012.61
2018-05-26T09:46:50.353Z,1012.56
2018-05-26T09:47:50.352Z,1012.61
2018-05-26T09:48:50.349Z,1012.62
2018-05-26T09:49:50.342Z,1012.61
2018-05-26T09:50:50.335Z,1012.66
2018-05-26T09:51:50.332Z,1012.59
2018-05-26T09:52:50.330Z,1012.6
2018-05-26T09:53:50.327Z,1012.61
2018-05-26T09:54:50.320Z,1012.59
2018-05-26T09:55:50.317Z,1012.56
2018-05-26T09:56:50.378Z,1012.59
2018-05-26T09:57:50.319Z,1012.58
2018-05-26T09:58:50.306Z,1012.56
2018-05-26T09:59:50.303Z,1012.59
2018-05-26T10:00:50.299Z,1012.58
2018-05-26T10:01:50.301Z,1012.53
2018-05-26T10:02:50.288Z,1012.56
2018-05-26T10:03:50.290Z,1012.6
2018-05-26T10:04:50.281Z,1012.59
2018-05-26T10:05:50.277Z,1012.6
2018-05-26T10:06:50.276Z,1012.6
2018-05-26T10:07:50.271Z,1012.59
2018-05-26T10:08:50.265Z,1012.59
2018-05-26T10:09:50.263Z,1012.61
2018-05-26T10:10:50.258Z,1012.76
2018-05-26T10:11:50.258Z,1012.72
2018-05-26T10:12:50.252Z,1012.79
2018-05-26T10:13:50.242Z,1012.77
2018-05-26T10:14:50.242Z,1012.64
2018-05-26T10:15:50.237Z,1012.61
2018-05-26T10:16:50.232Z,1012.69
2018-05-26T10:17:50.239Z,1012.66
2018-05-26T10:18:50.227Z,1012.74
2018-05-26T10:19:50.230Z,1012.76
2018-05-26T10:20:50.218Z,1012.75
2018-05-26T10:21:50.217Z,1012.86
2018-05-26T10:22:50.219Z,1012.97
2018-05-26T10:23:50.221Z,1012.72
2018-05-26T10:24:50.226Z,1013.04
2018-05-26T10:25:50.220Z,1012.96
2018-05-26T10:26:50.220Z,1013.01
2018-05-26T10:27:50.219Z,1013.06
2018-05-26T10:28:50.217Z,1013.07
2018-05-26T10:29:50.402Z,1013.04
2018-05-26T10:30:50.210Z,1012.97
2018-05-26T10:31:50.202Z,1013
2018-05-26T10:32:50.210Z,1012.93
2018-05-26T10:33:50.235Z,1012.94
2018-05-26T10:34:50.209Z,1012.93
2018-05-26T10:35:50.213Z,1012.95
2018-05-26T10:36:50.214Z,1012.95
2018-05-26T10:37:50.216Z,1012.9
2018-05-26T10:38:50.217Z,1012.91
2018-05-26T10:39:50.219Z,1012.83
2018-05-26T10:40:50.275Z,1012.79
2018-05-26T10:41:50.225Z,1012.76
2018-05-26T10:42:50.228Z,1012.68
2018-05-26T10:43:50.237Z,1012.62
2018-05-26T10:44:50.239Z,1012.62
2018-05-26T10:45:50.242Z,1012.56
2018-05-26T10:46:50.252Z,1012.63
2018-05-26T10:47:50.253Z,1012.6
2018-05-26T10:48:50.276Z,1012.58
2018-05-26T10:49:50.262Z,1012.6
2018-05-26T10:50:50.269Z,1012.64
2018-05-26T10:51:50.306Z,1012.61
2018-05-26T10:52:50.281Z,1012.61
2018-05-26T10:53:50.285Z,1012.64
2018-05-26T10:54:50.291Z,1012.63
2018-05-26T10:55:50.306Z,1012.61
2018-05-26T10:56:50.306Z,1012.57
2018-05-26T10:57:50.310Z,1012.58
2018-05-26T10:58:50.318Z,1012.58
2018-05-26T10:59:50.329Z,1012.64
2018-05-26T11:00:50.332Z,1012.62
2018-05-26T11:01:50.335Z,1012.58
2018-05-26T11:02:50.346Z,1012.63
2018-05-26T11:03:50.355Z,1012.6
2018-05-26T11:04:50.357Z,1012.62
2018-05-26T11:05:50.367Z,1012.63
2018-05-26T11:06:50.371Z,1012.62
2018-05-26T11:07:50.378Z,1012.72
2018-05-26T11:08:50.385Z,1012.64
2018-05-26T11:09:50.394Z,1012.72
2018-05-26T11:10:50.400Z,1012.69
2018-05-26T11:11:50.407Z,1012.72
2018-05-26T11:12:50.414Z,1012.68
2018-05-26T11:13:50.423Z,1012.7
2018-05-26T11:14:50.432Z,1012.66
2018-05-26T11:15:50.438Z,1012.67
2018-05-26T11:16:50.444Z,1012.7
2018-05-26T11:17:50.656Z,1012.67
2018-05-26T11:18:50.459Z,1012.72
2018-05-26T11:19:50.467Z,1012.74
2018-05-26T11:20:50.475Z,1012.73
2018-05-26T11:21:50.482Z,1012.69
2018-05-26T11:22:50.498Z,1012.7
2018-05-26T11:23:50.499Z,1012.74
2018-05-26T11:24:50.570Z,1012.71
2018-05-26T11:25:50.512Z,1012.76
2018-05-26T11:26:50.519Z,1012.72
2018-05-26T11:27:50.528Z,1012.66
2018-05-26T11:28:50.540Z,1012.66
2018-05-26T11:29:50.561Z,1012.65
2018-05-26T11:30:50.569Z,1012.65
2018-05-26T11:31:50.610Z,1012.62
2018-05-26T11:32:50.566Z,1012.63
2018-05-26T11:33:50.576Z,1012.65
2018-05-26T11:34:50.585Z,1012.64
2018-05-26T11:35:50.594Z,1012.6
2018-05-26T11:36:50.598Z,1012.62
2018-05-26T11:37:50.607Z,1012.61
2018-05-26T11:38:50.617Z,1012.61
2018-05-26T11:39:50.623Z,1012.57
2018-05-26T11:40:50.631Z,1012.59
2018-05-26T11:41:50.641Z,1012.65
2018-05-26T11:42:50.650Z,1012.62
2018-05-26T11:43:50.654Z,1012.57
2018-05-26T11:44:50.664Z,1012.61
2018-05-26T11:45:50.671Z,1012.63
2018-05-26T11:46:50.678Z,1012.61
2018-05-26T11:47:50.686Z,1012.64
2018-05-26T11:48:50.693Z,1012.7
2018-05-26T11:49:50.700Z,1012.65
2018-05-26T11:50:50.713Z,1012.62
2018-05-26T11:51:50.716Z,1012.61
2018-05-26T11:52:50.725Z,1012.64
2018-05-26T11:53:50.733Z,1012.63
2018-05-26T11:54:50.743Z,1012.62
2018-05-26T11:55:50.753Z,1012.64
2018-05-26T11:56:50.756Z,1012.61
2018-05-26T11:57:50.768Z,1012.61
2018-05-26T11:58:50.777Z,1012.59
2018-05-26T11:59:50.780Z,1012.51
2018-05-26T12:00:50.790Z,1012.55
2018-05-26T12:01:50.823Z,1012.54
2018-05-26T12:02:50.805Z,1012.54
2018-05-26T12:03:50.812Z,1012.55
2018-05-26T12:04:50.824Z,1012.54
2018-05-26T12:05:50.828Z,1012.53
2018-05-26T12:06:50.840Z,1012.55
2018-05-26T12:07:50.842Z,1012.56
2018-05-26T12:08:50.855Z,1012.59